sensor_id;sensor_type;location;lat;lon;timestamp;P1;durP1;ratioP1;P2;durP2;ratioP2
1178;SDS011;578;48.408;10.004;2022-12-11T00:00:26;20.35;;;11.63;;
1178;SDS011;578;48.408;10.004;2022-12-11T00:02:54;19.75;;;11.90;;
1178;SDS011;578;48.408;10.004;2022-12-11T00:05:21;21.73;;;11.75;;
1178;SDS011;578;48.408;10.004;2022-12-11T00:07:48;19.75;;;11.98;;
1178;SDS011;578;48.408;10.004;2022-12-11T00:10:15;19.67;;;12.43;;
1178;SDS011;578;48.408;10.004;2022-12-11T00:12:42;21.30;;;12.18;;
1178;SDS011;578;48.408;10.004;2022-12-11T00:15:09;20.10;;;10.80;;
1178;SDS011;578;48.408;10.004;2022-12-11T00:17:36;22.77;;;11.98;;
1178;SDS011;578;48.408;10.004;2022-12-11T00:20:04;26.58;;;14.10;;
1178;SDS011;578;48.408;10.004;2022-12-11T00:22:33;21.95;;;13.63;;
1178;SDS011;578;48.408;10.004;2022-12-11T00:24:59;27.25;;;12.85;;
1178;SDS011;578;48.408;10.004;2022-12-11T00:27:26;26.58;;;13.25;;
1178;SDS011;578;48.408;10.004;2022-12-11T00:29:53;22.40;;;11.40;;
1178;SDS011;578;48.408;10.004;2022-12-11T00:32:20;24.50;;;13.10;;
1178;SDS011;578;48.408;10.004;2022-12-11T00:34:47;21.20;;;12.27;;
1178;SDS011;578;48.408;10.004;2022-12-11T00:37:15;18.88;;;11.60;;
1178;SDS011;578;48.408;10.004;2022-12-11T00:39:42;17.23;;;11.88;;
1178;SDS011;578;48.408;10.004;2022-12-11T00:42:08;24.65;;;13.55;;
1178;SDS011;578;48.408;10.004;2022-12-11T00:44:35;21.00;;;13.60;;
1178;SDS011;578;48.408;10.004;2022-12-11T00:47:02;21.58;;;12.80;;
1178;SDS011;578;48.408;10.004;2022-12-11T00:49:29;19.05;;;12.50;;
1178;SDS011;578;48.408;10.004;2022-12-11T00:51:56;28.90;;;13.05;;
1178;SDS011;578;48.408;10.004;2022-12-11T00:54:24;20.85;;;12.82;;
1178;SDS011;578;48.408;10.004;2022-12-11T00:56:51;25.20;;;13.00;;
1178;SDS011;578;48.408;10.004;2022-12-11T00:59:20;23.30;;;12.82;;
1178;SDS011;578;48.408;10.004;2022-12-11T01:01:46;23.88;;;11.25;;
1178;SDS011;578;48.408;10.004;2022-12-11T01:04:13;19.15;;;11.98;;
1178;SDS011;578;48.408;10.004;2022-12-11T01:06:40;21.08;;;13.25;;
1178;SDS011;578;48.408;10.004;2022-12-11T01:09:06;24.27;;;12.82;;
1178;SDS011;578;48.408;10.004;2022-12-11T01:11:52;21.95;;;11.80;;
1178;SDS011;578;48.408;10.004;2022-12-11T01:14:19;25.33;;;14.15;;
1178;SDS011;578;48.408;10.004;2022-12-11T01:16:45;25.10;;;13.70;;
1178;SDS011;578;48.408;10.004;2022-12-11T01:19:12;21.25;;;13.38;;
1178;SDS011;578;48.408;10.004;2022-12-11T01:21:39;27.92;;;12.80;;
1178;SDS011;578;48.408;10.004;2022-12-11T01:24:06;23.33;;;12.48;;
1178;SDS011;578;48.408;10.004;2022-12-11T01:26:32;27.30;;;13.85;;
1178;SDS011;578;48.408;10.004;2022-12-11T01:29:01;22.75;;;13.73;;
1178;SDS011;578;48.408;10.004;2022-12-11T01:31:28;24.17;;;14.20;;
1178;SDS011;578;48.408;10.004;2022-12-11T01:33:55;28.92;;;13.93;;
1178;SDS011;578;48.408;10.004;2022-12-11T01:36:22;27.38;;;12.45;;
1178;SDS011;578;48.408;10.004;2022-12-11T01:38:49;30.38;;;14.48;;
1178;SDS011;578;48.408;10.004;2022-12-11T01:41:17;26.85;;;15.75;;
1178;SDS011;578;48.408;10.004;2022-12-11T01:43:58;29.80;;;14.40;;
1178;SDS011;578;48.408;10.004;2022-12-11T01:46:28;22.75;;;14.40;;
1178;SDS011;578;48.408;10.004;2022-12-11T01:48:55;25.27;;;14.13;;
1178;SDS011;578;48.408;10.004;2022-12-11T01:51:24;24.38;;;14.30;;
1178;SDS011;578;48.408;10.004;2022-12-11T01:53:52;24.60;;;13.82;;
1178;SDS011;578;48.408;10.004;2022-12-11T01:56:24;29.23;;;14.13;;
1178;SDS011;578;48.408;10.004;2022-12-11T01:58:53;25.80;;;13.75;;
1178;SDS011;578;48.408;10.004;2022-12-11T02:01:28;46.75;;;14.48;;
1178;SDS011;578;48.408;10.004;2022-12-11T02:04:00;26.73;;;13.63;;
1178;SDS011;578;48.408;10.004;2022-12-11T02:06:31;22.33;;;13.80;;
1178;SDS011;578;48.408;10.004;2022-12-11T02:09:00;26.95;;;13.18;;
1178;SDS011;578;48.408;10.004;2022-12-11T02:11:30;26.65;;;14.38;;
1178;SDS011;578;48.408;10.004;2022-12-11T02:14:10;23.70;;;12.43;;
1178;SDS011;578;48.408;10.004;2022-12-11T02:16:43;23.70;;;13.27;;
1178;SDS011;578;48.408;10.004;2022-12-11T02:19:17;24.08;;;14.02;;
1178;SDS011;578;48.408;10.004;2022-12-11T02:21:55;25.95;;;14.13;;
1178;SDS011;578;48.408;10.004;2022-12-11T02:24:25;22.17;;;12.75;;
1178;SDS011;578;48.408;10.004;2022-12-11T02:27:07;19.25;;;11.93;;
1178;SDS011;578;48.408;10.004;2022-12-11T02:29:47;22.25;;;13.13;;
1178;SDS011;578;48.408;10.004;2022-12-11T02:32:16;23.17;;;13.75;;
1178;SDS011;578;48.408;10.004;2022-12-11T02:34:48;18.45;;;12.32;;
1178;SDS011;578;48.408;10.004;2022-12-11T02:37:22;28.52;;;13.60;;
1178;SDS011;578;48.408;10.004;2022-12-11T02:39:52;20.65;;;12.57;;
1178;SDS011;578;48.408;10.004;2022-12-11T02:42:21;26.58;;;13.60;;
1178;SDS011;578;48.408;10.004;2022-12-11T02:44:53;25.45;;;13.73;;
1178;SDS011;578;48.408;10.004;2022-12-11T02:47:21;25.75;;;15.13;;
1178;SDS011;578;48.408;10.004;2022-12-11T02:49:50;25.67;;;14.25;;
1178;SDS011;578;48.408;10.004;2022-12-11T02:52:19;22.92;;;12.68;;
1178;SDS011;578;48.408;10.004;2022-12-11T02:54:48;24.90;;;14.30;;
1178;SDS011;578;48.408;10.004;2022-12-11T02:57:18;20.05;;;11.98;;
1178;SDS011;578;48.408;10.004;2022-12-11T02:59:49;21.95;;;12.70;;
1178;SDS011;578;48.408;10.004;2022-12-11T03:02:17;24.95;;;13.52;;
1178;SDS011;578;48.408;10.004;2022-12-11T03:04:45;19.60;;;11.55;;
1178;SDS011;578;48.408;10.004;2022-12-11T03:07:13;23.77;;;12.73;;
1178;SDS011;578;48.408;10.004;2022-12-11T03:09:43;22.80;;;13.85;;
1178;SDS011;578;48.408;10.004;2022-12-11T03:12:12;20.67;;;12.10;;
1178;SDS011;578;48.408;10.004;2022-12-11T03:14:42;28.23;;;12.20;;
1178;SDS011;578;48.408;10.004;2022-12-11T03:17:11;19.45;;;12.38;;
1178;SDS011;578;48.408;10.004;2022-12-11T03:19:43;21.92;;;12.90;;
1178;SDS011;578;48.408;10.004;2022-12-11T03:22:15;20.20;;;11.15;;
1178;SDS011;578;48.408;10.004;2022-12-11T03:24:46;23.10;;;12.20;;
1178;SDS011;578;48.408;10.004;2022-12-11T03:27:17;21.83;;;11.63;;
1178;SDS011;578;48.408;10.004;2022-12-11T03:29:59;20.48;;;11.27;;
1178;SDS011;578;48.408;10.004;2022-12-11T03:32:29;19.75;;;10.73;;
1178;SDS011;578;48.408;10.004;2022-12-11T03:35:04;18.80;;;10.50;;
1178;SDS011;578;48.408;10.004;2022-12-11T03:37:35;16.70;;;10.95;;
1178;SDS011;578;48.408;10.004;2022-12-11T03:40:05;16.35;;;10.07;;
1178;SDS011;578;48.408;10.004;2022-12-11T03:42:35;17.30;;;10.70;;
1178;SDS011;578;48.408;10.004;2022-12-11T03:45:04;17.45;;;9.80;;
1178;SDS011;578;48.408;10.004;2022-12-11T03:47:32;19.45;;;10.50;;
1178;SDS011;578;48.408;10.004;2022-12-11T03:50:02;16.83;;;10.23;;
1178;SDS011;578;48.408;10.004;2022-12-11T03:52:32;20.70;;;11.57;;
1178;SDS011;578;48.408;10.004;2022-12-11T03:55:02;20.63;;;11.88;;
1178;SDS011;578;48.408;10.004;2022-12-11T03:57:31;20.92;;;11.65;;
1178;SDS011;578;48.408;10.004;2022-12-11T04:00:01;20.35;;;10.95;;
1178;SDS011;578;48.408;10.004;2022-12-11T04:02:29;17.85;;;11.00;;
1178;SDS011;578;48.408;10.004;2022-12-11T04:04:56;19.60;;;11.45;;
1178;SDS011;578;48.408;10.004;2022-12-11T04:07:24;17.20;;;11.15;;
1178;SDS011;578;48.408;10.004;2022-12-11T04:09:50;18.83;;;9.98;;
1178;SDS011;578;48.408;10.004;2022-12-11T04:12:17;18.27;;;10.68;;
1178;SDS011;578;48.408;10.004;2022-12-11T04:14:44;22.02;;;12.82;;
1178;SDS011;578;48.408;10.004;2022-12-11T04:17:29;16.58;;;9.98;;
1178;SDS011;578;48.408;10.004;2022-12-11T04:20:15;15.35;;;9.93;;
1178;SDS011;578;48.408;10.004;2022-12-11T04:23:03;18.38;;;10.18;;
1178;SDS011;578;48.408;10.004;2022-12-11T04:25:48;18.83;;;9.10;;
1178;SDS011;578;48.408;10.004;2022-12-11T04:28:15;17.95;;;10.55;;
1178;SDS011;578;48.408;10.004;2022-12-11T04:30:46;14.45;;;10.07;;
1178;SDS011;578;48.408;10.004;2022-12-11T04:33:13;22.00;;;10.90;;
1178;SDS011;578;48.408;10.004;2022-12-11T04:35:40;19.45;;;10.90;;
1178;SDS011;578;48.408;10.004;2022-12-11T04:38:08;18.05;;;10.77;;
1178;SDS011;578;48.408;10.004;2022-12-11T04:40:35;24.50;;;9.75;;
1178;SDS011;578;48.408;10.004;2022-12-11T04:43:02;20.08;;;9.88;;
1178;SDS011;578;48.408;10.004;2022-12-11T04:45:28;15.32;;;9.43;;
1178;SDS011;578;48.408;10.004;2022-12-11T04:47:55;13.63;;;7.95;;
1178;SDS011;578;48.408;10.004;2022-12-11T04:50:22;14.82;;;9.73;;
1178;SDS011;578;48.408;10.004;2022-12-11T04:52:48;14.90;;;9.30;;
1178;SDS011;578;48.408;10.004;2022-12-11T04:55:17;16.33;;;10.10;;
1178;SDS011;578;48.408;10.004;2022-12-11T04:57:43;14.40;;;10.43;;
1178;SDS011;578;48.408;10.004;2022-12-11T05:00:10;12.40;;;8.32;;
1178;SDS011;578;48.408;10.004;2022-12-11T05:02:39;17.13;;;10.35;;
1178;SDS011;578;48.408;10.004;2022-12-11T05:05:07;13.18;;;8.30;;
1178;SDS011;578;48.408;10.004;2022-12-11T05:07:35;17.50;;;9.50;;
1178;SDS011;578;48.408;10.004;2022-12-11T05:10:02;19.10;;;11.55;;
1178;SDS011;578;48.408;10.004;2022-12-11T05:12:31;18.20;;;9.30;;
1178;SDS011;578;48.408;10.004;2022-12-11T05:14:58;16.00;;;10.55;;
1178;SDS011;578;48.408;10.004;2022-12-11T05:17:25;20.25;;;10.75;;
1178;SDS011;578;48.408;10.004;2022-12-11T05:19:51;14.35;;;9.20;;
1178;SDS011;578;48.408;10.004;2022-12-11T05:22:18;17.98;;;9.98;;
1178;SDS011;578;48.408;10.004;2022-12-11T05:24:45;18.55;;;10.55;;
1178;SDS011;578;48.408;10.004;2022-12-11T05:27:12;14.65;;;8.48;;
1178;SDS011;578;48.408;10.004;2022-12-11T05:29:40;17.35;;;10.18;;
1178;SDS011;578;48.408;10.004;2022-12-11T05:32:07;18.40;;;9.68;;
1178;SDS011;578;48.408;10.004;2022-12-11T05:34:34;16.05;;;9.90;;
1178;SDS011;578;48.408;10.004;2022-12-11T05:37:00;20.13;;;10.13;;
1178;SDS011;578;48.408;10.004;2022-12-11T05:39:27;19.67;;;10.43;;
1178;SDS011;578;48.408;10.004;2022-12-11T05:41:54;14.93;;;8.85;;
1178;SDS011;578;48.408;10.004;2022-12-11T05:44:21;20.02;;;10.27;;
1178;SDS011;578;48.408;10.004;2022-12-11T05:46:49;13.40;;;8.85;;
1178;SDS011;578;48.408;10.004;2022-12-11T05:49:15;13.13;;;7.53;;
1178;SDS011;578;48.408;10.004;2022-12-11T05:51:42;20.25;;;10.15;;
1178;SDS011;578;48.408;10.004;2022-12-11T05:54:09;15.18;;;9.95;;
1178;SDS011;578;48.408;10.004;2022-12-11T05:56:36;19.50;;;9.55;;
1178;SDS011;578;48.408;10.004;2022-12-11T05:59:03;15.93;;;9.85;;
1178;SDS011;578;48.408;10.004;2022-12-11T06:01:32;17.50;;;9.27;;
1178;SDS011;578;48.408;10.004;2022-12-11T06:04:02;17.50;;;8.85;;
1178;SDS011;578;48.408;10.004;2022-12-11T06:06:30;15.63;;;9.85;;
1178;SDS011;578;48.408;10.004;2022-12-11T06:08:57;15.27;;;9.82;;
1178;SDS011;578;48.408;10.004;2022-12-11T06:11:26;13.50;;;8.90;;
1178;SDS011;578;48.408;10.004;2022-12-11T06:13:55;17.40;;;10.20;;
1178;SDS011;578;48.408;10.004;2022-12-11T06:16:22;15.52;;;9.75;;
1178;SDS011;578;48.408;10.004;2022-12-11T06:18:50;18.13;;;10.02;;
1178;SDS011;578;48.408;10.004;2022-12-11T06:21:18;15.65;;;9.52;;
1178;SDS011;578;48.408;10.004;2022-12-11T06:23:48;15.60;;;9.60;;
1178;SDS011;578;48.408;10.004;2022-12-11T06:26:17;17.55;;;9.35;;
1178;SDS011;578;48.408;10.004;2022-12-11T06:28:44;16.80;;;9.23;;
1178;SDS011;578;48.408;10.004;2022-12-11T06:31:12;18.38;;;10.38;;
1178;SDS011;578;48.408;10.004;2022-12-11T06:33:39;18.80;;;10.23;;
1178;SDS011;578;48.408;10.004;2022-12-11T06:36:07;18.58;;;10.13;;
1178;SDS011;578;48.408;10.004;2022-12-11T06:38:36;16.10;;;9.68;;
1178;SDS011;578;48.408;10.004;2022-12-11T06:41:04;17.17;;;9.55;;
1178;SDS011;578;48.408;10.004;2022-12-11T06:43:31;20.83;;;10.48;;
1178;SDS011;578;48.408;10.004;2022-12-11T06:46:01;16.27;;;9.60;;
1178;SDS011;578;48.408;10.004;2022-12-11T06:48:28;17.60;;;10.82;;
1178;SDS011;578;48.408;10.004;2022-12-11T06:50:55;16.45;;;9.70;;
1178;SDS011;578;48.408;10.004;2022-12-11T06:53:22;17.90;;;8.95;;
1178;SDS011;578;48.408;10.004;2022-12-11T06:55:50;19.02;;;11.25;;
1178;SDS011;578;48.408;10.004;2022-12-11T06:58:17;18.02;;;10.30;;
1178;SDS011;578;48.408;10.004;2022-12-11T07:00:44;19.30;;;10.48;;
1178;SDS011;578;48.408;10.004;2022-12-11T07:03:10;19.80;;;10.02;;
1178;SDS011;578;48.408;10.004;2022-12-11T07:05:37;17.20;;;9.27;;
1178;SDS011;578;48.408;10.004;2022-12-11T07:08:04;18.40;;;11.38;;
1178;SDS011;578;48.408;10.004;2022-12-11T07:10:32;13.77;;;8.88;;
1178;SDS011;578;48.408;10.004;2022-12-11T07:13:00;14.45;;;8.02;;
1178;SDS011;578;48.408;10.004;2022-12-11T07:15:26;13.95;;;9.32;;
1178;SDS011;578;48.408;10.004;2022-12-11T07:17:53;17.95;;;9.00;;
1178;SDS011;578;48.408;10.004;2022-12-11T07:20:20;13.30;;;9.02;;
1178;SDS011;578;48.408;10.004;2022-12-11T07:22:46;14.88;;;9.07;;
1178;SDS011;578;48.408;10.004;2022-12-11T07:25:14;11.05;;;7.57;;
1178;SDS011;578;48.408;10.004;2022-12-11T07:27:41;18.35;;;10.73;;
1178;SDS011;578;48.408;10.004;2022-12-11T07:30:09;15.15;;;9.25;;
1178;SDS011;578;48.408;10.004;2022-12-11T07:32:37;13.80;;;8.93;;
1178;SDS011;578;48.408;10.004;2022-12-11T07:35:04;15.73;;;10.70;;
1178;SDS011;578;48.408;10.004;2022-12-11T07:37:31;19.30;;;11.10;;
1178;SDS011;578;48.408;10.004;2022-12-11T07:39:58;21.42;;;10.45;;
1178;SDS011;578;48.408;10.004;2022-12-11T07:42:25;16.35;;;9.25;;
1178;SDS011;578;48.408;10.004;2022-12-11T07:44:51;14.93;;;10.10;;
1178;SDS011;578;48.408;10.004;2022-12-11T07:47:20;16.70;;;9.55;;
1178;SDS011;578;48.408;10.004;2022-12-11T07:49:47;15.70;;;9.60;;
1178;SDS011;578;48.408;10.004;2022-12-11T07:52:14;18.88;;;9.85;;
1178;SDS011;578;48.408;10.004;2022-12-11T07:54:40;15.30;;;10.63;;
1178;SDS011;578;48.408;10.004;2022-12-11T07:57:07;13.13;;;8.68;;
1178;SDS011;578;48.408;10.004;2022-12-11T07:59:34;10.88;;;7.22;;
1178;SDS011;578;48.408;10.004;2022-12-11T08:02:01;12.65;;;7.82;;
1178;SDS011;578;48.408;10.004;2022-12-11T08:04:29;14.43;;;8.75;;
1178;SDS011;578;48.408;10.004;2022-12-11T08:06:56;12.43;;;6.93;;
1178;SDS011;578;48.408;10.004;2022-12-11T08:09:23;9.90;;;7.18;;
1178;SDS011;578;48.408;10.004;2022-12-11T08:11:50;14.18;;;7.53;;
1178;SDS011;578;48.408;10.004;2022-12-11T08:14:17;11.85;;;6.93;;
1178;SDS011;578;48.408;10.004;2022-12-11T08:16:44;11.95;;;7.50;;
1178;SDS011;578;48.408;10.004;2022-12-11T08:19:12;8.82;;;6.20;;
1178;SDS011;578;48.408;10.004;2022-12-11T08:21:40;11.02;;;6.60;;
1178;SDS011;578;48.408;10.004;2022-12-11T08:24:07;10.35;;;7.20;;
1178;SDS011;578;48.408;10.004;2022-12-11T08:26:34;11.60;;;6.90;;
1178;SDS011;578;48.408;10.004;2022-12-11T08:29:01;9.68;;;6.40;;
1178;SDS011;578;48.408;10.004;2022-12-11T08:31:29;9.93;;;6.88;;
1178;SDS011;578;48.408;10.004;2022-12-11T08:33:56;9.70;;;6.47;;
1178;SDS011;578;48.408;10.004;2022-12-11T08:36:23;8.77;;;5.47;;
1178;SDS011;578;48.408;10.004;2022-12-11T08:38:51;11.23;;;6.95;;
1178;SDS011;578;48.408;10.004;2022-12-11T08:41:20;12.13;;;7.00;;
1178;SDS011;578;48.408;10.004;2022-12-11T08:43:48;10.65;;;7.28;;
1178;SDS011;578;48.408;10.004;2022-12-11T08:46:18;9.10;;;6.78;;
1178;SDS011;578;48.408;10.004;2022-12-11T08:48:47;11.77;;;7.65;;
1178;SDS011;578;48.408;10.004;2022-12-11T08:53:53;12.25;;;7.68;;
1178;SDS011;578;48.408;10.004;2022-12-11T08:56:20;10.73;;;6.40;;
1178;SDS011;578;48.408;10.004;2022-12-11T08:58:48;9.93;;;6.75;;
1178;SDS011;578;48.408;10.004;2022-12-11T09:01:15;11.30;;;6.82;;
1178;SDS011;578;48.408;10.004;2022-12-11T09:03:45;10.52;;;7.57;;
1178;SDS011;578;48.408;10.004;2022-12-11T09:06:13;12.25;;;7.88;;
1178;SDS011;578;48.408;10.004;2022-12-11T09:08:41;13.27;;;7.55;;
1178;SDS011;578;48.408;10.004;2022-12-11T09:11:11;11.30;;;7.13;;
1178;SDS011;578;48.408;10.004;2022-12-11T09:13:40;10.73;;;6.40;;
1178;SDS011;578;48.408;10.004;2022-12-11T09:16:08;10.70;;;6.47;;
1178;SDS011;578;48.408;10.004;2022-12-11T09:18:36;9.60;;;6.80;;
1178;SDS011;578;48.408;10.004;2022-12-11T09:21:04;9.95;;;7.13;;
1178;SDS011;578;48.408;10.004;2022-12-11T09:23:32;11.45;;;7.07;;
1178;SDS011;578;48.408;10.004;2022-12-11T09:26:02;14.88;;;8.23;;
1178;SDS011;578;48.408;10.004;2022-12-11T09:28:31;11.48;;;8.93;;
1178;SDS011;578;48.408;10.004;2022-12-11T09:30:58;14.85;;;8.45;;
1178;SDS011;578;48.408;10.004;2022-12-11T09:33:25;11.57;;;7.10;;
1178;SDS011;578;48.408;10.004;2022-12-11T09:35:55;11.70;;;8.15;;
1178;SDS011;578;48.408;10.004;2022-12-11T09:38:23;13.02;;;7.15;;
1178;SDS011;578;48.408;10.004;2022-12-11T09:40:49;10.40;;;6.75;;
1178;SDS011;578;48.408;10.004;2022-12-11T09:43:17;13.85;;;7.40;;
1178;SDS011;578;48.408;10.004;2022-12-11T09:45:56;9.57;;;6.85;;
1178;SDS011;578;48.408;10.004;2022-12-11T09:48:28;12.43;;;8.30;;
1178;SDS011;578;48.408;10.004;2022-12-11T09:50:56;11.35;;;6.50;;
1178;SDS011;578;48.408;10.004;2022-12-11T09:53:24;10.40;;;6.22;;
1178;SDS011;578;48.408;10.004;2022-12-11T09:55:55;12.00;;;7.10;;
1178;SDS011;578;48.408;10.004;2022-12-11T09:58:30;13.18;;;6.90;;
1178;SDS011;578;48.408;10.004;2022-12-11T10:01:07;9.55;;;6.45;;
1178;SDS011;578;48.408;10.004;2022-12-11T10:03:52;8.00;;;5.82;;
1178;SDS011;578;48.408;10.004;2022-12-11T10:06:32;11.57;;;7.60;;
1178;SDS011;578;48.408;10.004;2022-12-11T10:09:09;12.25;;;7.90;;
1178;SDS011;578;48.408;10.004;2022-12-11T10:11:49;11.57;;;7.40;;
1178;SDS011;578;48.408;10.004;2022-12-11T10:14:30;11.75;;;7.68;;
1178;SDS011;578;48.408;10.004;2022-12-11T10:17:08;14.05;;;7.45;;
1178;SDS011;578;48.408;10.004;2022-12-11T10:19:38;12.02;;;7.85;;
1178;SDS011;578;48.408;10.004;2022-12-11T10:22:08;12.07;;;7.93;;
1178;SDS011;578;48.408;10.004;2022-12-11T10:24:43;14.38;;;7.20;;
1178;SDS011;578;48.408;10.004;2022-12-11T10:27:16;11.35;;;7.80;;
1178;SDS011;578;48.408;10.004;2022-12-11T10:29:45;40.95;;;35.53;;
1178;SDS011;578;48.408;10.004;2022-12-11T10:32:17;14.57;;;8.90;;
1178;SDS011;578;48.408;10.004;2022-12-11T10:34:48;11.75;;;8.65;;
1178;SDS011;578;48.408;10.004;2022-12-11T10:37:22;11.50;;;7.90;;
1178;SDS011;578;48.408;10.004;2022-12-11T10:39:49;13.82;;;7.50;;
1178;SDS011;578;48.408;10.004;2022-12-11T10:42:17;14.10;;;8.30;;
1178;SDS011;578;48.408;10.004;2022-12-11T10:44:55;12.85;;;7.72;;
1178;SDS011;578;48.408;10.004;2022-12-11T10:47:25;14.40;;;9.35;;
1178;SDS011;578;48.408;10.004;2022-12-11T10:49:52;15.40;;;8.50;;
1178;SDS011;578;48.408;10.004;2022-12-11T10:52:23;11.02;;;7.55;;
1178;SDS011;578;48.408;10.004;2022-12-11T10:54:55;13.50;;;8.80;;
1178;SDS011;578;48.408;10.004;2022-12-11T10:57:25;13.45;;;8.27;;
1178;SDS011;578;48.408;10.004;2022-12-11T10:59:54;13.93;;;9.25;;
1178;SDS011;578;48.408;10.004;2022-12-11T11:02:25;13.95;;;8.85;;
1178;SDS011;578;48.408;10.004;2022-12-11T11:04:54;13.90;;;8.95;;
1178;SDS011;578;48.408;10.004;2022-12-11T11:07:23;13.40;;;8.40;;
1178;SDS011;578;48.408;10.004;2022-12-11T11:09:59;11.82;;;8.77;;
1178;SDS011;578;48.408;10.004;2022-12-11T11:12:39;14.90;;;9.93;;
1178;SDS011;578;48.408;10.004;2022-12-11T11:15:10;16.00;;;9.82;;
1178;SDS011;578;48.408;10.004;2022-12-11T11:17:43;12.25;;;8.85;;
1178;SDS011;578;48.408;10.004;2022-12-11T11:20:13;11.43;;;8.25;;
1178;SDS011;578;48.408;10.004;2022-12-11T11:22:43;13.13;;;8.80;;
1178;SDS011;578;48.408;10.004;2022-12-11T11:25:15;15.00;;;9.05;;
1178;SDS011;578;48.408;10.004;2022-12-11T11:27:44;15.27;;;8.90;;
1178;SDS011;578;48.408;10.004;2022-12-11T11:30:17;12.70;;;8.65;;
1178;SDS011;578;48.408;10.004;2022-12-11T11:32:47;15.55;;;9.82;;
1178;SDS011;578;48.408;10.004;2022-12-11T11:35:17;12.75;;;8.85;;
1178;SDS011;578;48.408;10.004;2022-12-11T11:37:46;13.73;;;8.73;;
1178;SDS011;578;48.408;10.004;2022-12-11T11:40:21;19.77;;;11.15;;
1178;SDS011;578;48.408;10.004;2022-12-11T11:42:54;12.30;;;9.57;;
1178;SDS011;578;48.408;10.004;2022-12-11T11:45:27;14.82;;;8.90;;
1178;SDS011;578;48.408;10.004;2022-12-11T11:48:02;14.60;;;9.60;;
1178;SDS011;578;48.408;10.004;2022-12-11T11:50:39;13.80;;;9.18;;
1178;SDS011;578;48.408;10.004;2022-12-11T11:53:11;14.05;;;9.10;;
1178;SDS011;578;48.408;10.004;2022-12-11T11:55:46;15.75;;;8.73;;
1178;SDS011;578;48.408;10.004;2022-12-11T11:58:19;13.73;;;8.68;;
1178;SDS011;578;48.408;10.004;2022-12-11T12:00:49;15.65;;;8.10;;
1178;SDS011;578;48.408;10.004;2022-12-11T12:03:20;15.57;;;9.82;;
1178;SDS011;578;48.408;10.004;2022-12-11T12:05:51;17.67;;;8.93;;
1178;SDS011;578;48.408;10.004;2022-12-11T12:08:25;17.08;;;10.30;;
1178;SDS011;578;48.408;10.004;2022-12-11T12:11:02;16.58;;;8.75;;
1178;SDS011;578;48.408;10.004;2022-12-11T12:13:37;14.30;;;9.48;;
1178;SDS011;578;48.408;10.004;2022-12-11T12:16:16;11.15;;;7.65;;
1178;SDS011;578;48.408;10.004;2022-12-11T12:18:51;12.25;;;8.07;;
1178;SDS011;578;48.408;10.004;2022-12-11T12:21:28;16.08;;;9.35;;
1178;SDS011;578;48.408;10.004;2022-12-11T12:24:02;13.60;;;9.05;;
1178;SDS011;578;48.408;10.004;2022-12-11T12:26:38;12.82;;;7.05;;
1178;SDS011;578;48.408;10.004;2022-12-11T12:29:12;11.35;;;7.30;;
1178;SDS011;578;48.408;10.004;2022-12-11T12:31:54;16.85;;;9.20;;
1178;SDS011;578;48.408;10.004;2022-12-11T12:34:34;13.82;;;8.18;;
1178;SDS011;578;48.408;10.004;2022-12-11T12:37:14;17.48;;;9.88;;
1178;SDS011;578;48.408;10.004;2022-12-11T12:39:53;14.32;;;8.48;;
1178;SDS011;578;48.408;10.004;2022-12-11T12:42:28;13.90;;;8.10;;
1178;SDS011;578;48.408;10.004;2022-12-11T12:45:04;15.95;;;8.77;;
1178;SDS011;578;48.408;10.004;2022-12-11T12:47:49;11.48;;;7.95;;
1178;SDS011;578;48.408;10.004;2022-12-11T12:50:18;12.52;;;9.60;;
1178;SDS011;578;48.408;10.004;2022-12-11T12:52:49;16.00;;;9.20;;
1178;SDS011;578;48.408;10.004;2022-12-11T12:55:18;12.13;;;8.70;;
1178;SDS011;578;48.408;10.004;2022-12-11T12:57:48;11.98;;;7.68;;
1178;SDS011;578;48.408;10.004;2022-12-11T13:00:30;12.93;;;8.45;;
1178;SDS011;578;48.408;10.004;2022-12-11T13:03:00;11.00;;;7.93;;
1178;SDS011;578;48.408;10.004;2022-12-11T13:05:39;17.15;;;9.30;;
1178;SDS011;578;48.408;10.004;2022-12-11T13:08:08;18.83;;;8.02;;
1178;SDS011;578;48.408;10.004;2022-12-11T13:10:37;12.73;;;8.25;;
1178;SDS011;578;48.408;10.004;2022-12-11T13:13:05;11.38;;;6.75;;
1178;SDS011;578;48.408;10.004;2022-12-11T13:16:04;11.07;;;7.47;;
1178;SDS011;578;48.408;10.004;2022-12-11T13:18:48;13.73;;;7.45;;
1178;SDS011;578;48.408;10.004;2022-12-11T13:21:27;12.60;;;7.40;;
1178;SDS011;578;48.408;10.004;2022-12-11T13:24:05;17.05;;;9.32;;
1178;SDS011;578;48.408;10.004;2022-12-11T13:26:48;12.07;;;7.57;;
1178;SDS011;578;48.408;10.004;2022-12-11T13:29:29;14.05;;;9.13;;
1178;SDS011;578;48.408;10.004;2022-12-11T13:31:58;11.27;;;6.93;;
1178;SDS011;578;48.408;10.004;2022-12-11T13:34:26;14.85;;;7.80;;
1178;SDS011;578;48.408;10.004;2022-12-11T13:36:58;11.73;;;7.93;;
1178;SDS011;578;48.408;10.004;2022-12-11T13:39:26;12.23;;;7.53;;
1178;SDS011;578;48.408;10.004;2022-12-11T13:41:56;13.02;;;8.48;;
1178;SDS011;578;48.408;10.004;2022-12-11T13:44:25;13.55;;;9.35;;
1178;SDS011;578;48.408;10.004;2022-12-11T13:46:55;15.80;;;8.63;;
1178;SDS011;578;48.408;10.004;2022-12-11T13:49:25;16.75;;;10.18;;
1178;SDS011;578;48.408;10.004;2022-12-11T13:51:55;11.88;;;7.53;;
1178;SDS011;578;48.408;10.004;2022-12-11T13:54:27;13.35;;;8.45;;
1178;SDS011;578;48.408;10.004;2022-12-11T13:56:56;13.35;;;8.82;;
1178;SDS011;578;48.408;10.004;2022-12-11T13:59:26;14.55;;;8.63;;
1178;SDS011;578;48.408;10.004;2022-12-11T14:01:56;13.73;;;8.98;;
1178;SDS011;578;48.408;10.004;2022-12-11T14:04:25;12.95;;;8.50;;
1178;SDS011;578;48.408;10.004;2022-12-11T14:06:53;11.50;;;7.82;;
1178;SDS011;578;48.408;10.004;2022-12-11T14:09:23;15.32;;;9.38;;
1178;SDS011;578;48.408;10.004;2022-12-11T14:11:51;13.43;;;8.93;;
1178;SDS011;578;48.408;10.004;2022-12-11T14:14:22;18.13;;;10.25;;
1178;SDS011;578;48.408;10.004;2022-12-11T14:16:53;17.67;;;10.00;;
1178;SDS011;578;48.408;10.004;2022-12-11T14:19:21;12.30;;;8.75;;
1178;SDS011;578;48.408;10.004;2022-12-11T14:21:58;14.00;;;8.80;;
1178;SDS011;578;48.408;10.004;2022-12-11T14:24:28;14.52;;;8.13;;
1178;SDS011;578;48.408;10.004;2022-12-11T14:26:56;17.48;;;9.15;;
1178;SDS011;578;48.408;10.004;2022-12-11T14:29:25;16.23;;;9.93;;
1178;SDS011;578;48.408;10.004;2022-12-11T14:31:54;17.65;;;10.13;;
1178;SDS011;578;48.408;10.004;2022-12-11T14:34:25;17.15;;;10.23;;
1178;SDS011;578;48.408;10.004;2022-12-11T14:36:55;14.93;;;10.05;;
1178;SDS011;578;48.408;10.004;2022-12-11T14:39:23;19.90;;;10.40;;
1178;SDS011;578;48.408;10.004;2022-12-11T14:41:55;17.58;;;9.40;;
1178;SDS011;578;48.408;10.004;2022-12-11T14:44:26;18.88;;;10.50;;
1178;SDS011;578;48.408;10.004;2022-12-11T14:46:56;13.80;;;8.13;;
1178;SDS011;578;48.408;10.004;2022-12-11T14:49:28;17.35;;;10.93;;
1178;SDS011;578;48.408;10.004;2022-12-11T14:52:04;12.48;;;9.35;;
1178;SDS011;578;48.408;10.004;2022-12-11T14:54:39;16.30;;;9.60;;
1178;SDS011;578;48.408;10.004;2022-12-11T14:57:12;14.02;;;9.20;;
1178;SDS011;578;48.408;10.004;2022-12-11T14:59:44;13.35;;;7.18;;
1178;SDS011;578;48.408;10.004;2022-12-11T15:02:24;15.27;;;7.88;;
1178;SDS011;578;48.408;10.004;2022-12-11T15:05:01;11.38;;;7.03;;
1178;SDS011;578;48.408;10.004;2022-12-11T15:07:40;12.88;;;6.78;;
1178;SDS011;578;48.408;10.004;2022-12-11T15:10:20;8.40;;;4.82;;
1178;SDS011;578;48.408;10.004;2022-12-11T15:12:49;7.78;;;5.05;;
1178;SDS011;578;48.408;10.004;2022-12-11T15:15:16;9.73;;;4.57;;